Wiley Post Will Rogers Memorial Airport Barrow US
ICAO: PABR
IATA:
Category: Medium
Scheduled Services:

Elevation: 44 ft
TransAlt. 18000 ft.

Airport Communications:
ASOS:132.15
ANCHORAGE CNTR:135.3
CTAF:123.6
BARROW RDO:122.2

PABR Zoom In..

Runways:

(A) RW 07 length 7100 ft width 150 ft
ILS 110.50 / hdg 71

(B) RW 25 length 7100 ft width 150 ft
---- / hdg 251

Location; PABR
Day. 23 / Time. 09.53 Zulu
* Altimeter: 30.06
* Temperature: 07° c. 44.6°f.
* Wind from: 250° Speed 07 kn.
Dewpoint: 07° c.
Visibility: 3/4 Statute Miles.
Clouds: Few 200 ft.
Clouds: Scattered 600 ft.
Clouds: Overcast 2400 ft.
Conditions: Mist.

PABR 230953Z AUTO 25007KT 3/4SM R07/4000V5000FT BR FEW002 SCT006 OVC024 07/07 A3006 RMK SLP179 T00720072 TSNO VIA AUTODIAL


Wind From 250°
Speed 07 kn.

 
 
jpsmedia.com for Web Design worldairports.se 2018   terms of use